Ringtown, Pennsylvania
Current Conditions -  °F | °C
As of 2:15 PM on Friday 28 Nov 2014 (Local Time) from KHZL Reporting Station
Overcast Overcast  
Wind Chill: 20°   Ceiling: 3200
Heat Index: 28°   Visibility: 10mi
Dew Point: 16°   Wind: 8mph
Humidity: 59%   Direction: 280°W
Pressure: 30.16"   Gusts: NA
Location:  40.86°N, 76.23°W
Report Text: KHZL 281915Z AUTO 28007KT 10SM BKN032 OVC039 M02/M09 A3016 RMK AO2
Loading
Personal Weather Stations






























Interactive Weather Map New forecast layout! Learn more

10-Day Weather Forecast

Advertisements
Track Severe Weather on mobile